sensor_id;sensor_type;location;lat;lon;timestamp;pressure;altitude;pressure_sealevel;temperature;humidity
15487;BME280;7845;53.698;10.078;2023-04-29T00:01:26;100829.44;;;13.23;100.00
15487;BME280;7845;53.698;10.078;2023-04-29T00:03:52;100830.25;;;13.27;100.00
15487;BME280;7845;53.698;10.078;2023-04-29T00:06:17;100824.66;;;13.47;100.00
15487;BME280;7845;53.698;10.078;2023-04-29T00:08:43;100826.81;;;13.25;100.00
15487;BME280;7845;53.698;10.078;2023-04-29T00:11:10;100832.69;;;13.38;100.00
15487;BME280;7845;53.698;10.078;2023-04-29T00:13:37;100839.78;;;13.31;100.00
15487;BME280;7845;53.698;10.078;2023-04-29T00:16:06;100844.97;;;13.34;100.00
15487;BME280;7845;53.698;10.078;2023-04-29T00:18:32;100837.19;;;13.31;100.00
15487;BME280;7845;53.698;10.078;2023-04-29T00:21:04;100843.66;;;13.09;100.00
15487;BME280;7845;53.698;10.078;2023-04-29T00:23:31;100839.03;;;12.71;100.00
15487;BME280;7845;53.698;10.078;2023-04-29T00:25:57;100838.66;;;12.94;100.00
15487;BME280;7845;53.698;10.078;2023-04-29T00:28:22;100840.63;;;12.80;100.00
15487;BME280;7845;53.698;10.078;2023-04-29T00:30:48;100840.66;;;12.78;100.00
15487;BME280;7845;53.698;10.078;2023-04-29T00:33:17;100848.00;;;13.11;100.00
15487;BME280;7845;53.698;10.078;2023-04-29T00:35:42;100845.53;;;12.99;100.00
15487;BME280;7845;53.698;10.078;2023-04-29T00:38:08;100844.22;;;12.74;100.00
15487;BME280;7845;53.698;10.078;2023-04-29T00:40:33;100848.03;;;13.07;100.00
15487;BME280;7845;53.698;10.078;2023-04-29T00:43:01;100856.56;;;13.21;100.00
15487;BME280;7845;53.698;10.078;2023-04-29T00:45:26;100857.19;;;12.82;100.00
15487;BME280;7845;53.698;10.078;2023-04-29T00:47:52;100853.81;;;12.73;100.00
15487;BME280;7845;53.698;10.078;2023-04-29T00:50:17;100859.84;;;12.78;100.00
15487;BME280;7845;53.698;10.078;2023-04-29T00:52:44;100860.84;;;13.26;100.00
15487;BME280;7845;53.698;10.078;2023-04-29T00:55:10;100857.13;;;13.38;100.00
15487;BME280;7845;53.698;10.078;2023-04-29T00:57:41;100861.59;;;13.35;100.00
15487;BME280;7845;53.698;10.078;2023-04-29T01:00:07;100859.81;;;13.35;100.00
15487;BME280;7845;53.698;10.078;2023-04-29T01:02:34;100853.84;;;12.72;100.00
15487;BME280;7845;53.698;10.078;2023-04-29T01:04:59;100874.03;;;12.65;100.00
15487;BME280;7845;53.698;10.078;2023-04-29T01:07:42;100879.84;;;12.86;100.00
15487;BME280;7845;53.698;10.078;2023-04-29T01:10:23;100874.31;;;13.04;100.00
15487;BME280;7845;53.698;10.078;2023-04-29T01:13:08;100876.66;;;13.22;100.00
15487;BME280;7845;53.698;10.078;2023-04-29T01:16:10;100885.25;;;13.32;100.00
15487;BME280;7845;53.698;10.078;2023-04-29T01:18:45;100873.19;;;13.69;100.00
15487;BME280;7845;53.698;10.078;2023-04-29T01:21:13;100870.28;;;13.37;100.00
15487;BME280;7845;53.698;10.078;2023-04-29T01:23:39;100869.28;;;13.44;100.00
15487;BME280;7845;53.698;10.078;2023-04-29T01:26:05;100874.50;;;13.45;100.00
15487;BME280;7845;53.698;10.078;2023-04-29T01:31:31;100885.59;;;12.51;100.00
15487;BME280;7845;53.698;10.078;2023-04-29T01:34:11;100887.69;;;12.87;100.00
15487;BME280;7845;53.698;10.078;2023-04-29T01:37:02;100899.03;;;12.85;100.00
15487;BME280;7845;53.698;10.078;2023-04-29T01:39:36;100891.88;;;12.99;100.00
15487;BME280;7845;53.698;10.078;2023-04-29T01:42:14;100889.34;;;12.93;100.00
15487;BME280;7845;53.698;10.078;2023-04-29T01:44:42;100895.06;;;12.59;100.00
15487;BME280;7845;53.698;10.078;2023-04-29T01:47:09;100891.56;;;13.20;100.00
15487;BME280;7845;53.698;10.078;2023-04-29T01:49:37;100882.97;;;13.10;100.00
15487;BME280;7845;53.698;10.078;2023-04-29T01:52:04;100887.69;;;13.41;100.00
15487;BME280;7845;53.698;10.078;2023-04-29T01:54:29;100883.94;;;13.54;100.00
15487;BME280;7845;53.698;10.078;2023-04-29T01:56:54;100883.59;;;13.24;100.00
15487;BME280;7845;53.698;10.078;2023-04-29T01:59:20;100882.84;;;13.67;100.00
15487;BME280;7845;53.698;10.078;2023-04-29T02:01:45;100887.91;;;13.27;100.00
15487;BME280;7845;53.698;10.078;2023-04-29T02:04:11;100893.00;;;13.38;100.00
15487;BME280;7845;53.698;10.078;2023-04-29T02:06:37;100894.44;;;13.55;100.00
15487;BME280;7845;53.698;10.078;2023-04-29T02:09:02;100896.25;;;13.50;100.00
15487;BME280;7845;53.698;10.078;2023-04-29T02:11:28;100903.63;;;13.77;100.00
15487;BME280;7845;53.698;10.078;2023-04-29T02:13:53;100902.91;;;13.69;100.00
15487;BME280;7845;53.698;10.078;2023-04-29T02:16:18;100905.66;;;13.11;100.00
15487;BME280;7845;53.698;10.078;2023-04-29T02:18:44;100914.66;;;13.47;100.00
15487;BME280;7845;53.698;10.078;2023-04-29T02:21:10;100915.88;;;13.26;100.00
15487;BME280;7845;53.698;10.078;2023-04-29T02:23:36;100917.91;;;13.09;100.00
15487;BME280;7845;53.698;10.078;2023-04-29T02:26:02;100921.41;;;13.08;100.00
15487;BME280;7845;53.698;10.078;2023-04-29T02:28:30;100924.09;;;13.59;100.00
15487;BME280;7845;53.698;10.078;2023-04-29T02:30:55;100922.25;;;13.64;100.00
15487;BME280;7845;53.698;10.078;2023-04-29T02:33:21;100916.59;;;13.38;100.00
15487;BME280;7845;53.698;10.078;2023-04-29T02:35:46;100927.28;;;13.25;100.00
15487;BME280;7845;53.698;10.078;2023-04-29T02:38:11;100922.50;;;13.49;100.00
15487;BME280;7845;53.698;10.078;2023-04-29T02:40:41;100917.66;;;13.26;100.00
15487;BME280;7845;53.698;10.078;2023-04-29T02:43:07;100928.63;;;13.48;100.00
15487;BME280;7845;53.698;10.078;2023-04-29T02:45:33;100922.03;;;13.76;100.00
15487;BME280;7845;53.698;10.078;2023-04-29T02:47:59;100925.56;;;13.73;100.00
15487;BME280;7845;53.698;10.078;2023-04-29T02:50:24;100928.91;;;13.81;100.00
15487;BME280;7845;53.698;10.078;2023-04-29T02:52:50;100928.19;;;13.73;100.00
15487;BME280;7845;53.698;10.078;2023-04-29T02:55:15;100933.50;;;13.70;100.00
15487;BME280;7845;53.698;10.078;2023-04-29T02:57:41;100942.44;;;13.59;100.00
15487;BME280;7845;53.698;10.078;2023-04-29T03:00:07;100940.00;;;13.50;100.00
15487;BME280;7845;53.698;10.078;2023-04-29T03:02:33;100940.47;;;13.19;100.00
15487;BME280;7845;53.698;10.078;2023-04-29T03:04:58;100936.44;;;13.52;100.00
15487;BME280;7845;53.698;10.078;2023-04-29T03:07:23;100936.28;;;13.61;100.00
15487;BME280;7845;53.698;10.078;2023-04-29T03:09:49;100939.28;;;13.39;100.00
15487;BME280;7845;53.698;10.078;2023-04-29T03:12:14;100952.69;;;13.71;100.00
15487;BME280;7845;53.698;10.078;2023-04-29T03:14:41;100959.53;;;13.81;100.00
15487;BME280;7845;53.698;10.078;2023-04-29T03:17:06;100954.06;;;13.93;100.00
15487;BME280;7845;53.698;10.078;2023-04-29T03:19:31;100952.38;;;13.89;100.00
15487;BME280;7845;53.698;10.078;2023-04-29T03:21:57;100962.19;;;13.79;100.00
15487;BME280;7845;53.698;10.078;2023-04-29T03:24:22;100961.38;;;13.74;100.00
15487;BME280;7845;53.698;10.078;2023-04-29T03:26:47;100963.91;;;13.80;100.00
15487;BME280;7845;53.698;10.078;2023-04-29T03:29:13;100969.41;;;13.65;100.00
15487;BME280;7845;53.698;10.078;2023-04-29T03:31:39;100975.56;;;13.64;100.00
15487;BME280;7845;53.698;10.078;2023-04-29T03:34:04;100975.44;;;13.72;100.00
15487;BME280;7845;53.698;10.078;2023-04-29T03:36:29;100984.06;;;13.77;100.00
15487;BME280;7845;53.698;10.078;2023-04-29T03:38:54;100973.69;;;13.71;100.00
15487;BME280;7845;53.698;10.078;2023-04-29T03:41:20;100972.69;;;13.78;100.00
15487;BME280;7845;53.698;10.078;2023-04-29T03:43:48;100968.84;;;13.48;100.00
15487;BME280;7845;53.698;10.078;2023-04-29T03:46:13;100976.56;;;13.57;100.00
15487;BME280;7845;53.698;10.078;2023-04-29T03:48:38;100977.34;;;13.62;100.00
15487;BME280;7845;53.698;10.078;2023-04-29T03:51:04;100972.91;;;13.66;100.00
15487;BME280;7845;53.698;10.078;2023-04-29T03:53:29;100973.78;;;13.66;100.00
15487;BME280;7845;53.698;10.078;2023-04-29T03:55:55;100970.84;;;13.83;100.00
15487;BME280;7845;53.698;10.078;2023-04-29T03:58:20;100984.00;;;13.81;100.00
15487;BME280;7845;53.698;10.078;2023-04-29T04:00:47;100988.44;;;13.79;100.00
15487;BME280;7845;53.698;10.078;2023-04-29T04:03:13;100984.44;;;13.57;100.00
15487;BME280;7845;53.698;10.078;2023-04-29T04:05:38;100994.56;;;13.78;100.00
15487;BME280;7845;53.698;10.078;2023-04-29T04:08:03;101010.66;;;13.57;100.00
15487;BME280;7845;53.698;10.078;2023-04-29T04:10:29;101017.47;;;13.12;100.00
15487;BME280;7845;53.698;10.078;2023-04-29T04:12:54;101024.31;;;13.21;100.00
15487;BME280;7845;53.698;10.078;2023-04-29T04:15:20;101031.31;;;13.22;100.00
15487;BME280;7845;53.698;10.078;2023-04-29T04:17:46;101035.47;;;13.35;100.00
15487;BME280;7845;53.698;10.078;2023-04-29T04:20:12;101037.34;;;13.27;100.00
15487;BME280;7845;53.698;10.078;2023-04-29T04:22:37;101033.34;;;13.60;100.00
15487;BME280;7845;53.698;10.078;2023-04-29T04:25:02;101032.47;;;13.59;100.00
15487;BME280;7845;53.698;10.078;2023-04-29T04:27:29;101038.06;;;13.37;100.00
15487;BME280;7845;53.698;10.078;2023-04-29T04:29:54;101039.53;;;13.56;100.00
15487;BME280;7845;53.698;10.078;2023-04-29T04:32:21;101041.41;;;13.48;100.00
15487;BME280;7845;53.698;10.078;2023-04-29T04:34:46;101046.56;;;13.54;100.00
15487;BME280;7845;53.698;10.078;2023-04-29T04:37:12;101053.50;;;13.58;100.00
15487;BME280;7845;53.698;10.078;2023-04-29T04:39:38;101046.59;;;13.52;100.00
15487;BME280;7845;53.698;10.078;2023-04-29T04:42:04;101053.88;;;13.32;100.00
15487;BME280;7845;53.698;10.078;2023-04-29T04:44:30;101055.00;;;13.72;100.00
15487;BME280;7845;53.698;10.078;2023-04-29T04:46:55;101046.63;;;14.01;100.00
15487;BME280;7845;53.698;10.078;2023-04-29T04:49:22;101057.03;;;13.54;100.00
15487;BME280;7845;53.698;10.078;2023-04-29T04:51:48;101066.47;;;13.65;100.00
15487;BME280;7845;53.698;10.078;2023-04-29T04:54:14;101059.16;;;13.85;100.00
15487;BME280;7845;53.698;10.078;2023-04-29T04:56:39;101067.63;;;13.48;100.00
15487;BME280;7845;53.698;10.078;2023-04-29T04:59:05;101073.94;;;13.91;100.00
15487;BME280;7845;53.698;10.078;2023-04-29T05:01:30;101073.97;;;13.90;100.00
15487;BME280;7845;53.698;10.078;2023-04-29T05:03:55;101076.88;;;13.73;100.00
15487;BME280;7845;53.698;10.078;2023-04-29T05:06:21;101082.13;;;13.71;100.00
15487;BME280;7845;53.698;10.078;2023-04-29T05:08:46;101082.06;;;13.76;100.00
15487;BME280;7845;53.698;10.078;2023-04-29T05:11:16;101084.41;;;13.93;100.00
15487;BME280;7845;53.698;10.078;2023-04-29T05:13:43;101085.38;;;14.39;100.00
15487;BME280;7845;53.698;10.078;2023-04-29T05:16:08;101077.88;;;15.07;100.00
15487;BME280;7845;53.698;10.078;2023-04-29T05:18:34;101067.31;;;16.20;100.00
15487;BME280;7845;53.698;10.078;2023-04-29T05:21:00;101062.06;;;17.14;100.00
15487;BME280;7845;53.698;10.078;2023-04-29T05:23:25;101062.22;;;16.46;100.00
15487;BME280;7845;53.698;10.078;2023-04-29T05:25:50;101056.72;;;16.86;100.00
15487;BME280;7845;53.698;10.078;2023-04-29T05:28:16;101055.91;;;17.41;100.00
15487;BME280;7845;53.698;10.078;2023-04-29T05:30:41;101055.78;;;18.26;100.00
15487;BME280;7845;53.698;10.078;2023-04-29T05:33:07;101053.94;;;18.03;100.00
15487;BME280;7845;53.698;10.078;2023-04-29T05:35:32;101073.19;;;17.51;100.00
15487;BME280;7845;53.698;10.078;2023-04-29T05:37:58;101067.47;;;17.66;100.00
15487;BME280;7845;53.698;10.078;2023-04-29T05:40:23;101074.66;;;16.74;100.00
15487;BME280;7845;53.698;10.078;2023-04-29T05:42:48;101094.41;;;15.91;100.00
15487;BME280;7845;53.698;10.078;2023-04-29T05:45:14;101086.53;;;16.24;100.00
15487;BME280;7845;53.698;10.078;2023-04-29T05:47:39;101098.97;;;15.83;100.00
15487;BME280;7845;53.698;10.078;2023-04-29T05:50:05;101108.97;;;14.42;100.00
15487;BME280;7845;53.698;10.078;2023-04-29T05:52:30;101125.94;;;14.72;100.00
15487;BME280;7845;53.698;10.078;2023-04-29T05:54:56;101127.09;;;15.00;100.00
15487;BME280;7845;53.698;10.078;2023-04-29T05:57:21;101138.84;;;14.82;100.00
15487;BME280;7845;53.698;10.078;2023-04-29T05:59:47;101129.84;;;14.95;100.00
15487;BME280;7845;53.698;10.078;2023-04-29T06:02:12;101143.91;;;14.91;100.00
15487;BME280;7845;53.698;10.078;2023-04-29T06:04:38;101141.97;;;14.55;100.00
15487;BME280;7845;53.698;10.078;2023-04-29T06:07:05;101144.22;;;14.78;100.00
15487;BME280;7845;53.698;10.078;2023-04-29T06:09:33;101146.72;;;14.36;100.00
15487;BME280;7845;53.698;10.078;2023-04-29T06:11:59;101151.34;;;14.70;100.00
15487;BME280;7845;53.698;10.078;2023-04-29T06:14:24;101161.56;;;14.39;100.00
15487;BME280;7845;53.698;10.078;2023-04-29T06:16:50;101171.56;;;14.13;100.00
15487;BME280;7845;53.698;10.078;2023-04-29T06:19:15;101173.34;;;14.66;100.00
15487;BME280;7845;53.698;10.078;2023-04-29T06:21:40;101174.28;;;14.62;100.00
15487;BME280;7845;53.698;10.078;2023-04-29T06:24:05;101181.44;;;14.54;100.00
15487;BME280;7845;53.698;10.078;2023-04-29T06:26:31;101183.63;;;14.78;100.00
15487;BME280;7845;53.698;10.078;2023-04-29T06:28:57;101175.28;;;15.01;100.00
15487;BME280;7845;53.698;10.078;2023-04-29T06:31:22;101177.38;;;15.26;100.00
15487;BME280;7845;53.698;10.078;2023-04-29T06:33:47;101176.56;;;15.24;100.00
15487;BME280;7845;53.698;10.078;2023-04-29T06:36:13;101181.28;;;15.52;100.00
15487;BME280;7845;53.698;10.078;2023-04-29T06:38:38;101177.38;;;15.26;100.00
15487;BME280;7845;53.698;10.078;2023-04-29T06:41:03;101179.41;;;15.57;100.00
15487;BME280;7845;53.698;10.078;2023-04-29T06:43:29;101172.44;;;15.56;100.00
15487;BME280;7845;53.698;10.078;2023-04-29T06:45:55;101169.06;;;15.87;100.00
15487;BME280;7845;53.698;10.078;2023-04-29T06:48:20;101171.88;;;15.38;100.00
15487;BME280;7845;53.698;10.078;2023-04-29T06:50:50;101184.03;;;15.47;100.00
15487;BME280;7845;53.698;10.078;2023-04-29T06:53:16;101191.88;;;15.50;100.00
15487;BME280;7845;53.698;10.078;2023-04-29T06:55:41;101188.50;;;15.40;100.00
15487;BME280;7845;53.698;10.078;2023-04-29T06:58:06;101185.16;;;15.32;100.00
15487;BME280;7845;53.698;10.078;2023-04-29T07:00:32;101186.03;;;15.33;100.00
15487;BME280;7845;53.698;10.078;2023-04-29T07:02:57;101184.91;;;15.44;100.00
15487;BME280;7845;53.698;10.078;2023-04-29T07:05:23;101199.59;;;15.13;100.00
15487;BME280;7845;53.698;10.078;2023-04-29T07:07:48;101193.31;;;15.63;100.00
15487;BME280;7845;53.698;10.078;2023-04-29T07:10:13;101193.41;;;15.16;100.00
15487;BME280;7845;53.698;10.078;2023-04-29T07:12:39;101198.28;;;15.34;100.00
15487;BME280;7845;53.698;10.078;2023-04-29T07:15:04;101196.72;;;15.24;100.00
15487;BME280;7845;53.698;10.078;2023-04-29T07:17:30;101200.78;;;14.97;100.00
15487;BME280;7845;53.698;10.078;2023-04-29T07:19:55;101200.66;;;15.03;100.00
15487;BME280;7845;53.698;10.078;2023-04-29T07:22:21;101204.19;;;15.02;100.00
15487;BME280;7845;53.698;10.078;2023-04-29T07:24:46;101206.53;;;15.16;100.00
15487;BME280;7845;53.698;10.078;2023-04-29T07:27:12;101199.53;;;15.15;100.00
15487;BME280;7845;53.698;10.078;2023-04-29T07:29:37;101208.81;;;15.34;100.00
15487;BME280;7845;53.698;10.078;2023-04-29T07:32:02;101216.28;;;15.11;100.00
15487;BME280;7845;53.698;10.078;2023-04-29T07:34:28;101225.88;;;15.13;100.00
15487;BME280;7845;53.698;10.078;2023-04-29T07:36:53;101221.84;;;15.38;100.00
15487;BME280;7845;53.698;10.078;2023-04-29T07:39:18;101222.28;;;15.19;100.00
15487;BME280;7845;53.698;10.078;2023-04-29T07:41:44;101231.78;;;15.26;100.00
15487;BME280;7845;53.698;10.078;2023-04-29T07:44:09;101228.22;;;15.27;100.00
15487;BME280;7845;53.698;10.078;2023-04-29T07:46:35;101225.22;;;15.46;100.00
15487;BME280;7845;53.698;10.078;2023-04-29T07:49:00;101220.03;;;15.43;100.00
15487;BME280;7845;53.698;10.078;2023-04-29T07:51:26;101222.13;;;15.69;100.00
15487;BME280;7845;53.698;10.078;2023-04-29T07:53:53;101221.69;;;15.49;100.00
15487;BME280;7845;53.698;10.078;2023-04-29T07:56:18;101216.66;;;15.80;100.00
15487;BME280;7845;53.698;10.078;2023-04-29T07:58:44;101223.44;;;15.50;100.00
15487;BME280;7845;53.698;10.078;2023-04-29T08:01:10;101235.91;;;15.80;100.00
15487;BME280;7845;53.698;10.078;2023-04-29T08:03:36;101225.78;;;15.62;100.00
15487;BME280;7845;53.698;10.078;2023-04-29T08:06:05;101237.56;;;15.43;100.00
15487;BME280;7845;53.698;10.078;2023-04-29T08:08:30;101239.66;;;15.70;100.00
15487;BME280;7845;53.698;10.078;2023-04-29T08:10:56;101246.13;;;15.95;100.00
15487;BME280;7845;53.698;10.078;2023-04-29T08:13:21;101244.47;;;15.91;100.00
15487;BME280;7845;53.698;10.078;2023-04-29T08:15:46;101252.88;;;16.07;100.00
15487;BME280;7845;53.698;10.078;2023-04-29T08:18:12;101244.72;;;15.79;100.00
15487;BME280;7845;53.698;10.078;2023-04-29T08:20:37;101259.25;;;15.97;100.00
15487;BME280;7845;53.698;10.078;2023-04-29T08:23:02;101252.94;;;16.04;100.00
15487;BME280;7845;53.698;10.078;2023-04-29T08:25:28;101257.94;;;16.16;100.00
15487;BME280;7845;53.698;10.078;2023-04-29T08:27:54;101255.00;;;16.28;100.00
15487;BME280;7845;53.698;10.078;2023-04-29T08:30:20;101276.50;;;16.10;100.00
15487;BME280;7845;53.698;10.078;2023-04-29T08:32:45;101268.66;;;16.07;100.00
15487;BME280;7845;53.698;10.078;2023-04-29T08:35:11;101281.25;;;15.94;100.00
15487;BME280;7845;53.698;10.078;2023-04-29T08:37:37;101279.06;;;16.13;100.00
15487;BME280;7845;53.698;10.078;2023-04-29T08:40:02;101283.31;;;16.20;100.00
15487;BME280;7845;53.698;10.078;2023-04-29T08:42:35;101292.38;;;16.07;100.00
15487;BME280;7845;53.698;10.078;2023-04-29T08:45:02;101284.28;;;16.16;100.00
15487;BME280;7845;53.698;10.078;2023-04-29T08:47:32;101288.56;;;16.22;100.00
15487;BME280;7845;53.698;10.078;2023-04-29T08:50:03;101290.03;;;16.33;100.00
15487;BME280;7845;53.698;10.078;2023-04-29T08:52:30;101291.53;;;16.45;100.00
15487;BME280;7845;53.698;10.078;2023-04-29T08:54:56;101280.94;;;16.46;100.00
15487;BME280;7845;53.698;10.078;2023-04-29T08:57:24;101281.03;;;16.80;100.00
15487;BME280;7845;53.698;10.078;2023-04-29T08:59:49;101284.69;;;16.75;100.00
15487;BME280;7845;53.698;10.078;2023-04-29T09:02:15;101287.25;;;16.78;100.00
15487;BME280;7845;53.698;10.078;2023-04-29T09:07:20;101289.34;;;17.31;100.00
15487;BME280;7845;53.698;10.078;2023-04-29T09:09:47;101290.88;;;17.40;100.00
15487;BME280;7845;53.698;10.078;2023-04-29T09:12:12;101285.34;;;17.17;100.00
15487;BME280;7845;53.698;10.078;2023-04-29T09:14:38;101287.44;;;17.36;100.00
15487;BME280;7845;53.698;10.078;2023-04-29T09:17:03;101284.22;;;17.25;100.00
15487;BME280;7845;53.698;10.078;2023-04-29T09:19:33;101279.94;;;17.21;98.10
15487;BME280;7845;53.698;10.078;2023-04-29T09:22:00;101278.31;;;17.48;98.94
15487;BME280;7845;53.698;10.078;2023-04-29T09:24:27;101291.28;;;17.25;100.00
15487;BME280;7845;53.698;10.078;2023-04-29T09:26:53;101280.06;;;17.47;99.22
15487;BME280;7845;53.698;10.078;2023-04-29T09:29:19;101284.34;;;17.21;95.18
15487;BME280;7845;53.698;10.078;2023-04-29T09:31:45;101292.53;;;17.44;98.11
15487;BME280;7845;53.698;10.078;2023-04-29T09:34:11;101280.94;;;17.17;93.81
15487;BME280;7845;53.698;10.078;2023-04-29T09:36:43;101286.78;;;17.28;97.92
15487;BME280;7845;53.698;10.078;2023-04-29T09:39:11;101290.59;;;17.49;98.25
15487;BME280;7845;53.698;10.078;2023-04-29T09:41:38;101297.63;;;17.50;96.16
15487;BME280;7845;53.698;10.078;2023-04-29T09:44:05;101293.41;;;17.43;91.90
15487;BME280;7845;53.698;10.078;2023-04-29T09:46:32;101291.56;;;17.46;96.53
15487;BME280;7845;53.698;10.078;2023-04-29T09:48:58;101294.63;;;17.63;96.38
15487;BME280;7845;53.698;10.078;2023-04-29T09:51:23;101289.03;;;17.74;93.67
15487;BME280;7845;53.698;10.078;2023-04-29T09:53:49;101287.94;;;17.81;92.99
15487;BME280;7845;53.698;10.078;2023-04-29T09:56:14;101300.69;;;17.98;93.81
15487;BME280;7845;53.698;10.078;2023-04-29T09:58:39;101303.66;;;17.55;90.72
15487;BME280;7845;53.698;10.078;2023-04-29T10:01:05;101306.16;;;17.59;90.22
15487;BME280;7845;53.698;10.078;2023-04-29T10:03:35;101313.34;;;17.56;91.57
15487;BME280;7845;53.698;10.078;2023-04-29T10:06:03;101297.44;;;17.57;86.54
15487;BME280;7845;53.698;10.078;2023-04-29T10:08:29;101295.59;;;17.59;86.73
15487;BME280;7845;53.698;10.078;2023-04-29T10:10:59;101298.88;;;17.69;88.91
15487;BME280;7845;53.698;10.078;2023-04-29T10:13:25;101294.44;;;17.69;86.05
15487;BME280;7845;53.698;10.078;2023-04-29T10:15:57;101295.06;;;17.47;86.23
15487;BME280;7845;53.698;10.078;2023-04-29T10:18:35;101299.31;;;17.52;84.09
15487;BME280;7845;53.698;10.078;2023-04-29T10:21:02;101283.81;;;17.40;81.71
15487;BME280;7845;53.698;10.078;2023-04-29T10:23:28;101284.06;;;17.63;81.04
15487;BME280;7845;53.698;10.078;2023-04-29T10:25:54;101291.81;;;17.69;82.44
15487;BME280;7845;53.698;10.078;2023-04-29T10:28:22;101300.34;;;17.79;84.42
15487;BME280;7845;53.698;10.078;2023-04-29T10:30:50;101291.78;;;17.71;82.84
15487;BME280;7845;53.698;10.078;2023-04-29T10:33:16;101296.09;;;17.74;84.27
15487;BME280;7845;53.698;10.078;2023-04-29T10:35:42;101307.13;;;17.88;85.15
15487;BME280;7845;53.698;10.078;2023-04-29T10:38:18;101288.22;;;18.01;80.48
15487;BME280;7845;53.698;10.078;2023-04-29T10:40:46;101301.47;;;18.29;80.90
15487;BME280;7845;53.698;10.078;2023-04-29T10:43:12;101291.97;;;18.22;80.80
15487;BME280;7845;53.698;10.078;2023-04-29T10:45:38;101302.06;;;18.37;82.62
15487;BME280;7845;53.698;10.078;2023-04-29T10:53:17;101305.03;;;17.99;80.66
15487;BME280;7845;53.698;10.078;2023-04-29T10:55:47;101302.59;;;18.50;79.99
15487;BME280;7845;53.698;10.078;2023-04-29T10:58:42;101278.00;;;18.46;74.43
15487;BME280;7845;53.698;10.078;2023-04-29T11:01:16;101285.06;;;18.18;74.50
15487;BME280;7845;53.698;10.078;2023-04-29T11:06:21;101299.53;;;18.34;77.54
15487;BME280;7845;53.698;10.078;2023-04-29T11:08:58;101298.44;;;18.95;78.59
15487;BME280;7845;53.698;10.078;2023-04-29T11:11:25;101299.94;;;19.28;79.39
15487;BME280;7845;53.698;10.078;2023-04-29T11:13:51;101297.63;;;19.19;75.69
15487;BME280;7845;53.698;10.078;2023-04-29T11:16:25;101294.84;;;19.22;75.92
15487;BME280;7845;53.698;10.078;2023-04-29T11:19:08;101307.72;;;19.58;75.59
15487;BME280;7845;53.698;10.078;2023-04-29T11:21:35;101298.53;;;19.91;75.29
15487;BME280;7845;53.698;10.078;2023-04-29T11:24:02;101312.69;;;19.67;76.59
15487;BME280;7845;53.698;10.078;2023-04-29T11:26:27;101303.78;;;19.69;75.50
15487;BME280;7845;53.698;10.078;2023-04-29T11:28:53;101312.16;;;19.57;76.18
15487;BME280;7845;53.698;10.078;2023-04-29T11:31:20;101297.22;;;20.03;74.11
15487;BME280;7845;53.698;10.078;2023-04-29T11:33:45;101313.69;;;20.34;75.49
15487;BME280;7845;53.698;10.078;2023-04-29T11:36:11;101304.06;;;20.08;73.89
15487;BME280;7845;53.698;10.078;2023-04-29T11:38:39;101302.66;;;20.45;72.77
15487;BME280;7845;53.698;10.078;2023-04-29T11:41:05;101298.88;;;20.28;72.45
15487;BME280;7845;53.698;10.078;2023-04-29T11:43:30;101304.56;;;20.63;71.48
15487;BME280;7845;53.698;10.078;2023-04-29T11:45:56;101301.97;;;20.61;69.97
15487;BME280;7845;53.698;10.078;2023-04-29T11:48:22;101299.63;;;20.54;71.65
15487;BME280;7845;53.698;10.078;2023-04-29T11:50:56;101298.16;;;20.68;70.81
15487;BME280;7845;53.698;10.078;2023-04-29T11:53:23;101308.50;;;20.31;70.13
15487;BME280;7845;53.698;10.078;2023-04-29T11:55:51;101308.09;;;19.95;68.96
15487;BME280;7845;53.698;10.078;2023-04-29T11:58:19;101291.72;;;20.07;67.71
15487;BME280;7845;53.698;10.078;2023-04-29T12:00:48;101306.28;;;19.74;69.09
15487;BME280;7845;53.698;10.078;2023-04-29T12:03:16;101308.16;;;19.70;70.39
15487;BME280;7845;53.698;10.078;2023-04-29T12:05:46;101317.91;;;19.45;69.99
15487;BME280;7845;53.698;10.078;2023-04-29T12:08:12;101310.19;;;19.62;69.76
15487;BME280;7845;53.698;10.078;2023-04-29T12:10:38;101319.56;;;19.72;69.83
15487;BME280;7845;53.698;10.078;2023-04-29T12:13:03;101300.31;;;19.91;70.49
15487;BME280;7845;53.698;10.078;2023-04-29T12:15:30;101314.00;;;20.48;70.81
15487;BME280;7845;53.698;10.078;2023-04-29T12:17:55;101307.88;;;20.89;69.65
15487;BME280;7845;53.698;10.078;2023-04-29T12:20:21;101297.63;;;21.42;67.28
15487;BME280;7845;53.698;10.078;2023-04-29T12:22:46;101292.00;;;21.69;64.20
15487;BME280;7845;53.698;10.078;2023-04-29T12:25:11;101294.25;;;21.59;64.68
15487;BME280;7845;53.698;10.078;2023-04-29T12:27:39;101300.00;;;21.89;64.21
15487;BME280;7845;53.698;10.078;2023-04-29T12:30:08;101309.75;;;21.08;63.95
15487;BME280;7845;53.698;10.078;2023-04-29T12:32:34;101316.03;;;21.27;63.44
15487;BME280;7845;53.698;10.078;2023-04-29T12:35:00;101300.50;;;21.38;62.01
15487;BME280;7845;53.698;10.078;2023-04-29T12:37:26;101296.91;;;21.19;62.52
15487;BME280;7845;53.698;10.078;2023-04-29T12:39:53;101296.25;;;21.14;61.67
15487;BME280;7845;53.698;10.078;2023-04-29T12:42:19;101303.63;;;21.06;63.37
15487;BME280;7845;53.698;10.078;2023-04-29T12:44:45;101292.59;;;21.16;62.27
15487;BME280;7845;53.698;10.078;2023-04-29T12:47:14;101302.84;;;21.04;61.17
15487;BME280;7845;53.698;10.078;2023-04-29T12:49:41;101321.34;;;20.41;63.62
15487;BME280;7845;53.698;10.078;2023-04-29T12:52:07;101315.22;;;20.83;65.14
15487;BME280;7845;53.698;10.078;2023-04-29T12:54:35;101314.28;;;20.64;62.56